createdAt,value
2018-07-26T00:00:38.495Z,20.00
2018-07-26T00:03:07.070Z,19.90
2018-07-26T00:05:35.613Z,19.90
2018-07-26T00:08:04.154Z,19.90
2018-07-26T00:10:32.689Z,19.90
2018-07-26T00:13:01.299Z,19.90
2018-07-26T00:15:29.838Z,19.80
2018-07-26T00:17:58.297Z,19.80
2018-07-26T00:20:26.849Z,19.80
2018-07-26T00:22:55.394Z,19.80
2018-07-26T00:25:23.976Z,19.80
2018-07-26T00:27:52.480Z,19.70
2018-07-26T00:30:21.011Z,19.70
2018-07-26T00:32:49.566Z,19.70
2018-07-26T00:35:18.098Z,19.60
2018-07-26T00:37:46.623Z,19.60
2018-07-26T00:40:15.228Z,19.60
2018-07-26T00:42:43.701Z,19.60
2018-07-26T00:45:12.271Z,19.50
2018-07-26T00:47:40.832Z,19.50
2018-07-26T00:50:09.390Z,19.40
2018-07-26T00:52:37.893Z,19.30
2018-07-26T00:55:06.456Z,19.20
2018-07-26T00:57:34.895Z,19.20
2018-07-26T01:00:03.532Z,19.20
2018-07-26T01:02:32.016Z,19.10
2018-07-26T01:05:00.545Z,19.10
2018-07-26T01:07:29.056Z,19.10
2018-07-26T01:09:57.594Z,19.10
2018-07-26T01:12:26.135Z,19.10
2018-07-26T01:14:55.679Z,19.00
2018-07-26T01:17:24.173Z,19.00
2018-07-26T01:19:52.692Z,19.00
2018-07-26T01:22:21.319Z,19.00
2018-07-26T01:24:49.970Z,19.00
2018-07-26T01:27:18.499Z,19.00
2018-07-26T01:29:47.109Z,19.00
2018-07-26T01:32:15.641Z,19.00
2018-07-26T01:34:44.241Z,19.10
2018-07-26T01:37:12.764Z,19.10
2018-07-26T01:39:41.268Z,19.10
2018-07-26T01:42:09.800Z,19.00
2018-07-26T01:44:38.317Z,19.00
2018-07-26T01:47:06.857Z,19.00
2018-07-26T01:49:35.325Z,19.00
2018-07-26T01:52:03.881Z,19.00
2018-07-26T01:54:32.448Z,18.80
2018-07-26T01:57:00.998Z,18.80
2018-07-26T01:59:29.471Z,18.70
2018-07-26T02:01:58.030Z,18.60
2018-07-26T02:04:26.585Z,18.50
2018-07-26T02:07:25.832Z,18.50
2018-07-26T02:09:54.427Z,18.50
2018-07-26T02:12:22.952Z,18.40
2018-07-26T02:14:51.505Z,18.40
2018-07-26T02:17:20.240Z,18.40
2018-07-26T02:19:49.024Z,18.50
2018-07-26T02:22:17.892Z,18.50
2018-07-26T02:24:46.708Z,18.50
2018-07-26T02:27:15.371Z,18.50
2018-07-26T02:29:44.169Z,18.40
2018-07-26T02:32:12.977Z,18.40
2018-07-26T02:34:41.752Z,18.40
2018-07-26T02:37:10.420Z,18.40
2018-07-26T02:39:39.214Z,18.30
2018-07-26T02:42:08.050Z,18.20
2018-07-26T02:44:36.951Z,18.20
2018-07-26T02:47:06.129Z,18.20
2018-07-26T02:49:34.781Z,18.10
2018-07-26T02:52:03.545Z,18.10
2018-07-26T02:57:00.764Z,18.00
2018-07-26T02:59:29.479Z,18.00
2018-07-26T03:01:58.293Z,18.00
2018-07-26T03:04:27.100Z,18.00
2018-07-26T03:06:55.856Z,18.00
2018-07-26T03:09:24.565Z,18.00
2018-07-26T03:11:53.397Z,18.00
2018-07-26T03:14:22.288Z,18.00
2018-07-26T03:16:51.101Z,17.90
2018-07-26T03:19:19.866Z,17.90
2018-07-26T03:21:48.641Z,17.90
2018-07-26T03:24:17.392Z,17.80
2018-07-26T03:26:46.134Z,17.80
2018-07-26T03:29:14.814Z,17.80
2018-07-26T03:31:43.616Z,17.90
2018-07-26T03:34:13.390Z,17.90
2018-07-26T03:36:42.031Z,17.90
2018-07-26T03:39:10.834Z,17.80
2018-07-26T03:41:39.356Z,17.80
2018-07-26T03:44:07.940Z,17.90
2018-07-26T03:46:36.613Z,17.90
2018-07-26T03:49:05.195Z,17.90
2018-07-26T03:51:33.708Z,17.80
2018-07-26T03:54:02.261Z,17.90
2018-07-26T03:56:30.972Z,17.90
2018-07-26T03:58:59.448Z,17.90
2018-07-26T04:01:28.052Z,17.90
2018-07-26T04:03:56.601Z,17.80
2018-07-26T04:06:25.212Z,17.80
2018-07-26T04:08:53.783Z,17.80
2018-07-26T04:11:22.336Z,17.80
2018-07-26T04:13:50.844Z,17.70
2018-07-26T04:16:19.667Z,17.70
2018-07-26T04:18:48.195Z,17.80
2018-07-26T04:21:16.821Z,17.80
2018-07-26T04:23:45.278Z,17.80
2018-07-26T04:26:13.901Z,17.80
2018-07-26T04:28:42.408Z,17.80
2018-07-26T04:31:10.907Z,17.80
2018-07-26T04:33:39.428Z,17.80
2018-07-26T04:36:07.945Z,17.90
2018-07-26T04:38:36.437Z,18.00
2018-07-26T04:41:05.019Z,18.00
2018-07-26T04:46:01.848Z,18.10
2018-07-26T04:48:30.379Z,18.10
2018-07-26T04:50:58.905Z,18.20
2018-07-26T04:53:27.498Z,18.20
2018-07-26T04:55:56.008Z,18.20
2018-07-26T04:58:24.551Z,18.30
2018-07-26T05:00:53.519Z,18.40
2018-07-26T05:03:22.019Z,18.40
2018-07-26T05:05:50.561Z,18.40
2018-07-26T05:08:19.061Z,18.50
2018-07-26T05:10:47.549Z,18.50
2018-07-26T05:13:16.116Z,18.40
2018-07-26T05:15:47.513Z,18.40
2018-07-26T05:18:16.034Z,18.50
2018-07-26T05:20:44.556Z,18.60
2018-07-26T05:23:13.090Z,18.60
2018-07-26T05:25:41.618Z,18.70
2018-07-26T05:28:10.121Z,18.80
2018-07-26T05:30:38.691Z,18.90
2018-07-26T05:33:07.235Z,19.00
2018-07-26T05:35:35.756Z,19.10
2018-07-26T05:38:07.366Z,19.30
2018-07-26T05:40:35.914Z,19.50
2018-07-26T05:43:04.603Z,19.60
2018-07-26T05:45:33.141Z,19.80
2018-07-26T05:48:01.721Z,19.80
2018-07-26T05:50:30.299Z,19.90
2018-07-26T05:52:58.893Z,20.00
2018-07-26T05:55:27.377Z,20.10
2018-07-26T05:57:55.897Z,20.20
2018-07-26T06:00:24.498Z,20.30
2018-07-26T06:02:53.053Z,20.50
2018-07-26T06:05:21.622Z,20.60
2018-07-26T06:07:50.172Z,20.70
2018-07-26T06:10:18.755Z,20.80
2018-07-26T06:12:47.365Z,20.90
2018-07-26T06:15:15.887Z,21.00
2018-07-26T06:17:44.370Z,21.10
2018-07-26T06:20:13.106Z,21.20
2018-07-26T06:22:41.656Z,21.30
2018-07-26T06:25:10.589Z,21.40
2018-07-26T06:27:39.168Z,21.50
2018-07-26T06:30:10.422Z,21.60
2018-07-26T06:32:38.990Z,21.60
2018-07-26T06:35:08.266Z,21.70
2018-07-26T06:37:36.793Z,21.80
2018-07-26T06:40:05.762Z,22.00
2018-07-26T06:42:34.305Z,22.10
2018-07-26T06:45:02.988Z,22.20
2018-07-26T06:47:31.589Z,22.30
2018-07-26T06:50:00.140Z,22.30
2018-07-26T06:52:28.771Z,22.50
2018-07-26T06:54:57.377Z,22.70
2018-07-26T06:57:26.360Z,22.80
2018-07-26T06:59:55.435Z,22.90
2018-07-26T07:02:23.969Z,23.10
2018-07-26T07:04:52.537Z,23.20
2018-07-26T07:07:21.085Z,23.40
2018-07-26T07:09:49.645Z,23.60
2018-07-26T07:12:18.209Z,23.60
2018-07-26T07:14:46.718Z,23.80
2018-07-26T07:17:15.343Z,24.10
2018-07-26T07:19:43.828Z,24.20
2018-07-26T07:22:12.372Z,24.30
2018-07-26T07:24:40.894Z,24.40
2018-07-26T07:27:09.645Z,24.50
2018-07-26T07:29:38.174Z,24.60
2018-07-26T07:32:06.753Z,24.80
2018-07-26T07:34:35.292Z,24.90
2018-07-26T07:37:03.831Z,25.10
2018-07-26T07:39:32.372Z,25.20
2018-07-26T07:42:00.961Z,25.40
2018-07-26T07:44:29.491Z,25.50
2018-07-26T07:46:57.980Z,25.70
2018-07-26T07:49:26.453Z,25.80
2018-07-26T07:51:55.038Z,25.80
2018-07-26T07:54:23.586Z,26.10
2018-07-26T07:56:52.132Z,26.30
2018-07-26T07:59:20.823Z,26.50
2018-07-26T08:01:49.327Z,26.70
2018-07-26T08:04:17.941Z,26.90
2018-07-26T08:06:46.466Z,27.00
2018-07-26T08:09:15.004Z,27.00
2018-07-26T08:11:43.526Z,27.20
2018-07-26T08:14:12.124Z,27.40
2018-07-26T08:19:08.818Z,27.80
2018-07-26T08:21:37.386Z,28.00
2018-07-26T08:24:05.958Z,28.20
2018-07-26T08:26:34.483Z,28.40
2018-07-26T08:29:03.017Z,28.50
2018-07-26T08:31:31.601Z,28.60
2018-07-26T08:34:00.200Z,28.80
2018-07-26T08:36:28.732Z,29.00
2018-07-26T08:38:57.232Z,29.20
2018-07-26T08:41:25.802Z,29.50
2018-07-26T08:43:54.375Z,29.60
2018-07-26T08:46:22.828Z,29.60
2018-07-26T08:48:51.361Z,29.70
2018-07-26T08:51:19.837Z,29.80
2018-07-26T08:53:48.377Z,30.00
2018-07-26T08:56:16.991Z,30.20
2018-07-26T08:58:45.447Z,30.50
2018-07-26T09:01:14.034Z,30.50
2018-07-26T09:03:42.518Z,30.70
2018-07-26T09:06:11.700Z,30.70
2018-07-26T09:08:40.304Z,30.90
2018-07-26T09:11:08.779Z,31.10
2018-07-26T09:13:37.400Z,31.30
2018-07-26T09:16:05.939Z,31.40
2018-07-26T09:18:34.442Z,31.50
2018-07-26T09:21:03.084Z,31.60
2018-07-26T09:23:31.613Z,31.60
2018-07-26T09:26:00.153Z,31.70
2018-07-26T09:28:28.688Z,31.70
2018-07-26T09:30:57.247Z,31.50
2018-07-26T09:33:25.878Z,31.60
2018-07-26T09:35:54.351Z,31.80
2018-07-26T09:38:22.852Z,31.90
2018-07-26T09:40:51.422Z,31.90
2018-07-26T09:43:20.037Z,32.00
2018-07-26T09:45:48.603Z,32.10
2018-07-26T09:48:17.198Z,32.30
2018-07-26T09:50:45.704Z,32.30
2018-07-26T09:53:14.201Z,32.30
2018-07-26T09:55:42.742Z,32.00
2018-07-26T09:58:11.348Z,32.10
2018-07-26T10:00:45.183Z,32.30
2018-07-26T10:03:13.649Z,32.50
2018-07-26T10:05:42.185Z,32.70
2018-07-26T10:10:38.872Z,32.60
2018-07-26T10:13:07.501Z,32.70
2018-07-26T10:15:35.966Z,32.80
2018-07-26T10:18:04.524Z,32.80
2018-07-26T10:20:33.103Z,32.90
2018-07-26T10:23:01.624Z,32.90
2018-07-26T10:25:30.188Z,33.00
2018-07-26T10:27:58.734Z,33.20
2018-07-26T10:30:27.297Z,33.00
2018-07-26T10:33:02.381Z,32.70
2018-07-26T10:35:30.922Z,32.60
2018-07-26T10:37:59.701Z,32.70
2018-07-26T10:40:28.298Z,33.10
2018-07-26T10:42:56.849Z,33.20
2018-07-26T10:45:25.449Z,33.30
2018-07-26T10:50:22.246Z,33.70
2018-07-26T10:52:50.777Z,33.60
2018-07-26T10:55:19.298Z,33.70
2018-07-26T10:57:47.852Z,33.80
2018-07-26T11:00:16.477Z,33.80
2018-07-26T11:02:44.943Z,33.80
2018-07-26T11:05:13.513Z,33.70
2018-07-26T11:07:42.181Z,33.90
2018-07-26T11:10:11.609Z,34.10
2018-07-26T11:12:40.120Z,34.10
2018-07-26T11:15:20.813Z,34.20
2018-07-26T11:17:49.427Z,34.20
2018-07-26T11:20:18.224Z,34.30
2018-07-26T11:22:46.803Z,34.50
2018-07-26T11:25:15.275Z,34.50
2018-07-26T11:27:43.748Z,34.70
2018-07-26T11:30:12.381Z,34.70
2018-07-26T11:32:41.256Z,34.70
2018-07-26T11:35:10.139Z,34.50
2018-07-26T11:37:38.617Z,34.50
2018-07-26T11:40:07.235Z,34.20
2018-07-26T11:42:35.767Z,34.40
2018-07-26T11:45:05.224Z,34.60
2018-07-26T11:47:33.696Z,34.80
2018-07-26T11:50:02.261Z,34.80
2018-07-26T11:52:30.773Z,35.00
2018-07-26T11:54:59.285Z,35.00
2018-07-26T11:57:27.960Z,35.20
2018-07-26T11:59:56.403Z,35.30
2018-07-26T12:02:25.002Z,35.00
2018-07-26T12:04:53.462Z,35.10
2018-07-26T12:07:22.146Z,35.30
2018-07-26T12:09:50.640Z,35.40
2018-07-26T12:12:19.119Z,35.50
2018-07-26T12:14:47.630Z,35.10
2018-07-26T12:17:16.172Z,35.10
2018-07-26T12:19:44.716Z,35.30
2018-07-26T12:22:13.275Z,35.40
2018-07-26T12:24:41.854Z,35.60
2018-07-26T12:27:10.546Z,35.60
2018-07-26T12:29:38.977Z,35.50
2018-07-26T12:32:07.524Z,35.70
2018-07-26T12:34:36.099Z,35.60
2018-07-26T12:37:04.608Z,35.70
2018-07-26T12:39:33.071Z,35.60
2018-07-26T12:42:01.639Z,35.30
2018-07-26T12:44:30.238Z,35.00
2018-07-26T12:46:58.804Z,34.90
2018-07-26T12:49:27.412Z,34.80
2018-07-26T12:51:55.905Z,35.00
2018-07-26T12:54:24.405Z,35.20
2018-07-26T12:56:52.941Z,35.10
2018-07-26T12:59:21.476Z,35.00
2018-07-26T13:01:50.058Z,35.00
2018-07-26T13:04:18.543Z,35.30
2018-07-26T13:06:47.055Z,35.40
2018-07-26T13:09:15.533Z,35.40
2018-07-26T13:11:44.146Z,35.40
2018-07-26T13:14:12.754Z,35.50
2018-07-26T13:16:41.267Z,35.70
2018-07-26T13:19:09.894Z,35.90
2018-07-26T13:21:38.400Z,36.00
2018-07-26T13:24:06.944Z,36.00
2018-07-26T13:26:35.805Z,35.90
2018-07-26T13:29:04.652Z,35.40
2018-07-26T13:31:33.162Z,35.40
2018-07-26T13:34:01.694Z,35.50
2018-07-26T13:36:30.325Z,35.50
2018-07-26T13:38:58.796Z,35.60
2018-07-26T13:41:27.324Z,35.70
2018-07-26T13:43:55.898Z,36.00
2018-07-26T13:46:24.606Z,36.30
2018-07-26T13:48:53.145Z,36.40
2018-07-26T13:51:21.723Z,36.30
2018-07-26T13:53:50.233Z,36.10
2018-07-26T13:56:18.792Z,35.90
2018-07-26T13:58:47.328Z,35.90
2018-07-26T14:01:16.953Z,36.00
2018-07-26T14:03:45.489Z,36.00
2018-07-26T14:06:14.160Z,36.00
2018-07-26T14:08:42.735Z,36.10
2018-07-26T14:11:11.245Z,36.00
2018-07-26T14:13:39.841Z,35.90
2018-07-26T14:16:08.497Z,35.80
2018-07-26T14:18:36.999Z,35.70
2018-07-26T14:21:05.574Z,35.70
2018-07-26T14:23:38.809Z,35.80
2018-07-26T14:26:09.418Z,35.60
2018-07-26T14:28:37.980Z,35.40
2018-07-26T15:53:05.279Z,35.40
2018-07-26T15:55:33.984Z,35.40
2018-07-26T15:58:02.775Z,35.30
2018-07-26T16:00:32.172Z,35.40
2018-07-26T16:03:01.879Z,35.50
2018-07-26T16:05:30.468Z,35.60
2018-07-26T16:07:59.002Z,35.70
2018-07-26T16:10:27.556Z,35.70
2018-07-26T16:12:56.128Z,35.90
2018-07-26T16:15:24.666Z,36.30
2018-07-26T16:17:53.385Z,36.70
2018-07-26T16:20:21.809Z,37.00
2018-07-26T16:22:50.426Z,37.10
2018-07-26T16:25:23.398Z,37.10
2018-07-26T16:27:52.252Z,37.30
2018-07-26T16:30:20.778Z,38.00
2018-07-26T16:32:50.393Z,38.60
2018-07-26T16:35:18.866Z,39.00
2018-07-26T16:37:47.397Z,39.40
2018-07-26T16:40:15.985Z,40.00
2018-07-26T16:42:44.662Z,40.20
2018-07-26T16:45:13.182Z,40.50
2018-07-26T16:50:09.891Z,41.40
2018-07-26T16:52:38.395Z,41.60
2018-07-26T16:55:07.067Z,41.60
2018-07-26T16:57:35.586Z,42.00
2018-07-26T17:02:33.304Z,42.10
2018-07-26T17:05:01.929Z,42.00
2018-07-26T17:07:30.471Z,42.00
2018-07-26T17:09:58.956Z,42.00
2018-07-26T17:12:27.707Z,42.10
2018-07-26T17:17:24.524Z,42.00
2018-07-26T17:19:53.125Z,42.00
2018-07-26T17:22:21.704Z,41.90
2018-07-26T17:24:52.348Z,41.90
2018-07-26T17:27:20.856Z,41.80
2018-07-26T17:29:49.456Z,41.60
2018-07-26T17:32:19.054Z,41.50
2018-07-26T17:34:47.737Z,41.30
2018-07-26T17:37:16.374Z,41.40
2018-07-26T17:39:45.050Z,41.30
2018-07-26T17:42:13.591Z,41.20
2018-07-26T17:44:42.114Z,41.20
2018-07-26T17:47:10.681Z,40.90
2018-07-26T17:49:39.249Z,40.90
2018-07-26T17:52:07.774Z,40.80
2018-07-26T17:54:36.262Z,40.80
2018-07-26T17:57:04.880Z,40.50
2018-07-26T17:59:33.404Z,40.30
2018-07-26T18:02:02.000Z,39.90
2018-07-26T18:04:30.579Z,39.30
2018-07-26T18:06:59.133Z,38.90
2018-07-26T18:09:27.665Z,38.50
2018-07-26T18:11:56.184Z,38.40
2018-07-26T18:14:24.827Z,38.10
2018-07-26T18:16:53.421Z,37.90
2018-07-26T18:19:21.880Z,37.20
2018-07-26T18:21:50.374Z,36.40
2018-07-26T18:24:18.871Z,35.20
2018-07-26T18:26:47.885Z,34.40
2018-07-26T18:29:16.404Z,33.50
2018-07-26T18:31:46.071Z,32.60
2018-07-26T18:36:42.765Z,31.30
2018-07-26T18:39:12.952Z,30.90
2018-07-26T18:41:41.722Z,30.40
2018-07-26T18:44:10.420Z,30.20
2018-07-26T18:46:39.337Z,29.90
2018-07-26T18:49:09.161Z,29.50
2018-07-26T18:51:38.833Z,29.20
2018-07-26T18:54:07.476Z,29.00
2018-07-26T18:56:35.962Z,28.60
2018-07-26T18:59:06.687Z,28.20
2018-07-26T19:01:35.348Z,28.20
2018-07-26T19:04:04.041Z,28.00
2018-07-26T19:06:32.734Z,27.90
2018-07-26T19:09:01.380Z,27.80
2018-07-26T19:11:29.936Z,27.70
2018-07-26T19:13:58.459Z,27.50
2018-07-26T19:16:27.018Z,27.30
2018-07-26T19:18:55.592Z,27.00
2018-07-26T19:21:24.176Z,26.80
2018-07-26T19:28:49.170Z,26.20
2018-07-26T19:31:17.719Z,26.10
2018-07-26T19:33:46.340Z,25.90
2018-07-26T19:36:15.115Z,25.80
2018-07-26T19:38:43.778Z,25.60
2018-07-26T19:41:12.514Z,25.40
2018-07-26T19:43:41.277Z,25.30
2018-07-26T19:46:10.091Z,25.10
2018-07-26T19:48:38.653Z,25.00
2018-07-26T19:51:07.233Z,24.90
2018-07-26T19:53:35.722Z,24.80
2018-07-26T19:56:07.769Z,24.60
2018-07-26T19:58:36.336Z,24.50
2018-07-26T20:01:04.925Z,24.50
2018-07-26T20:03:33.470Z,24.40
2018-07-26T20:06:02.010Z,24.30
2018-07-26T20:08:30.547Z,24.20
2018-07-26T20:10:59.213Z,24.20
2018-07-26T20:13:27.667Z,24.20
2018-07-26T20:15:56.273Z,24.10
2018-07-26T20:18:24.840Z,24.00
2018-07-26T20:20:53.465Z,23.90
2018-07-26T20:23:22.111Z,23.80
2018-07-26T20:25:50.697Z,23.50
2018-07-26T20:28:19.159Z,23.40
2018-07-26T20:30:47.801Z,23.20
2018-07-26T20:33:16.349Z,23.10
2018-07-26T20:35:44.957Z,23.10
2018-07-26T20:38:13.486Z,23.10
2018-07-26T20:40:42.018Z,23.10
2018-07-26T20:43:10.537Z,22.90
2018-07-26T20:45:39.112Z,22.90
2018-07-26T20:48:07.625Z,22.70
2018-07-26T20:50:36.256Z,22.70
2018-07-26T20:53:04.792Z,22.60
2018-07-26T20:55:35.457Z,22.50
2018-07-26T20:58:04.091Z,22.40
2018-07-26T21:00:32.643Z,22.30
2018-07-26T21:03:01.147Z,22.20
2018-07-26T21:05:29.656Z,22.20
2018-07-26T21:07:58.128Z,22.20
2018-07-26T21:10:26.647Z,22.10
2018-07-26T21:12:55.187Z,22.00
2018-07-26T21:15:23.727Z,22.00
2018-07-26T21:17:52.244Z,21.90
2018-07-26T21:20:20.805Z,21.90
2018-07-26T21:22:49.320Z,21.80
2018-07-26T21:25:17.841Z,21.80
2018-07-26T21:27:46.387Z,21.80
2018-07-26T21:30:14.868Z,21.90
2018-07-26T21:32:43.460Z,21.90
2018-07-26T21:35:11.979Z,22.00
2018-07-26T21:37:40.485Z,21.90
2018-07-26T21:40:09.068Z,21.80
2018-07-26T21:42:37.877Z,21.70
2018-07-26T21:45:07.073Z,21.60
2018-07-26T21:47:35.616Z,21.50
2018-07-26T21:50:04.187Z,21.50
2018-07-26T21:52:32.844Z,21.50
2018-07-26T21:55:01.425Z,21.50
2018-07-26T21:57:29.989Z,21.60
2018-07-26T21:59:58.561Z,21.60
2018-07-26T22:02:27.187Z,21.60
2018-07-26T22:04:55.741Z,21.60
2018-07-26T22:07:24.278Z,21.50
2018-07-26T22:09:52.851Z,21.20
2018-07-26T22:12:21.439Z,21.00
2018-07-26T22:14:49.985Z,20.90
2018-07-26T22:17:18.473Z,20.80
2018-07-26T22:19:47.047Z,20.80
2018-07-26T22:22:15.600Z,20.90
2018-07-26T22:24:44.087Z,20.80
2018-07-26T22:29:40.888Z,20.80
2018-07-26T22:32:09.459Z,20.80
2018-07-26T22:34:38.040Z,20.80
2018-07-26T22:37:06.731Z,20.70
2018-07-26T22:39:35.285Z,20.70
2018-07-26T22:42:03.834Z,20.60
2018-07-26T22:44:32.392Z,20.60
2018-07-26T22:47:00.978Z,20.50
2018-07-26T22:49:29.439Z,20.40
2018-07-26T22:51:58.040Z,20.30
2018-07-26T22:54:26.571Z,20.40
2018-07-26T22:56:55.092Z,20.40
2018-07-26T22:59:23.758Z,20.40
2018-07-26T23:01:52.290Z,20.40
2018-07-26T23:04:20.802Z,20.40
2018-07-26T23:06:49.344Z,20.40
2018-07-26T23:09:17.824Z,20.40
2018-07-26T23:11:46.341Z,20.30
2018-07-26T23:14:14.812Z,20.30
2018-07-26T23:16:44.414Z,20.30
2018-07-26T23:19:12.957Z,20.30
2018-07-26T23:21:41.532Z,20.20
2018-07-26T23:24:10.307Z,20.30
2018-07-26T23:26:38.844Z,20.30
2018-07-26T23:29:07.412Z,20.30
2018-07-26T23:31:36.198Z,20.20
2018-07-26T23:34:04.805Z,20.00
2018-07-26T23:36:33.345Z,19.90
2018-07-26T23:39:01.903Z,19.90
2018-07-26T23:43:58.596Z,19.90
2018-07-26T23:46:27.174Z,19.80
2018-07-26T23:48:55.759Z,19.80
2018-07-26T23:51:24.497Z,19.80
2018-07-26T23:53:52.970Z,19.70
2018-07-26T23:56:21.536Z,19.70
2018-07-26T23:58:49.988Z,19.60
